sensor_id;sensor_type;location;lat;lon;timestamp;temperature;humidity
39779;DHT22;25454;49.878;8.618;2023-03-01T00:04:48;0.70;99.90
39779;DHT22;25454;49.878;8.618;2023-03-01T00:09:49;0.70;99.90
39779;DHT22;25454;49.878;8.618;2023-03-01T00:14:49;0.60;99.90
39779;DHT22;25454;49.878;8.618;2023-03-01T00:19:53;0.60;99.90
39779;DHT22;25454;49.878;8.618;2023-03-01T00:24:54;0.50;99.90
39779;DHT22;25454;49.878;8.618;2023-03-01T00:29:54;0.50;99.90
39779;DHT22;25454;49.878;8.618;2023-03-01T00:34:55;0.50;99.90
39779;DHT22;25454;49.878;8.618;2023-03-01T00:39:58;0.50;99.90
39779;DHT22;25454;49.878;8.618;2023-03-01T00:44:59;0.40;99.90
39779;DHT22;25454;49.878;8.618;2023-03-01T00:49:59;0.40;99.90
39779;DHT22;25454;49.878;8.618;2023-03-01T00:55:00;0.40;99.90
39779;DHT22;25454;49.878;8.618;2023-03-01T01:00:01;0.40;99.90
39779;DHT22;25454;49.878;8.618;2023-03-01T01:05:01;0.40;99.90
39779;DHT22;25454;49.878;8.618;2023-03-01T01:10:02;0.40;99.90
39779;DHT22;25454;49.878;8.618;2023-03-01T01:15:03;0.40;99.90
39779;DHT22;25454;49.878;8.618;2023-03-01T01:20:04;0.40;99.90
39779;DHT22;25454;49.878;8.618;2023-03-01T01:25:05;0.40;99.90
39779;DHT22;25454;49.878;8.618;2023-03-01T01:30:06;0.40;99.90
39779;DHT22;25454;49.878;8.618;2023-03-01T01:35:07;0.40;99.90
39779;DHT22;25454;49.878;8.618;2023-03-01T01:40:09;0.40;99.90
39779;DHT22;25454;49.878;8.618;2023-03-01T01:45:40;0.40;99.90
39779;DHT22;25454;49.878;8.618;2023-03-01T01:50:41;0.40;99.90
39779;DHT22;25454;49.878;8.618;2023-03-01T01:55:49;0.40;99.90
39779;DHT22;25454;49.878;8.618;2023-03-01T02:00:53;0.40;99.90
39779;DHT22;25454;49.878;8.618;2023-03-01T02:05:58;0.40;99.90
39779;DHT22;25454;49.878;8.618;2023-03-01T02:11:02;0.40;99.90
39779;DHT22;25454;49.878;8.618;2023-03-01T02:33:56;0.30;99.90
39779;DHT22;25454;49.878;8.618;2023-03-01T02:38:58;0.20;99.90
39779;DHT22;25454;49.878;8.618;2023-03-01T02:43:59;0.20;99.90
39779;DHT22;25454;49.878;8.618;2023-03-01T02:49:00;0.20;99.90
39779;DHT22;25454;49.878;8.618;2023-03-01T02:59:09;0.20;99.90
39779;DHT22;25454;49.878;8.618;2023-03-01T03:04:15;0.30;99.90
39779;DHT22;25454;49.878;8.618;2023-03-01T03:09:18;0.30;99.90
39779;DHT22;25454;49.878;8.618;2023-03-01T03:14:19;0.30;99.90
39779;DHT22;25454;49.878;8.618;2023-03-01T03:19:23;0.30;99.90
39779;DHT22;25454;49.878;8.618;2023-03-01T03:24:23;0.20;99.90
39779;DHT22;25454;49.878;8.618;2023-03-01T03:29:24;0.20;99.90
39779;DHT22;25454;49.878;8.618;2023-03-01T03:34:24;0.20;99.90
39779;DHT22;25454;49.878;8.618;2023-03-01T03:39:28;0.20;99.90
39779;DHT22;25454;49.878;8.618;2023-03-01T03:44:35;0.20;99.90
39779;DHT22;25454;49.878;8.618;2023-03-01T03:49:36;0.20;99.90
39779;DHT22;25454;49.878;8.618;2023-03-01T03:54:37;0.20;99.90
39779;DHT22;25454;49.878;8.618;2023-03-01T03:59:37;0.20;99.90
39779;DHT22;25454;49.878;8.618;2023-03-01T04:04:38;0.30;99.90
39779;DHT22;25454;49.878;8.618;2023-03-01T04:09:39;0.30;99.90
39779;DHT22;25454;49.878;8.618;2023-03-01T04:14:42;0.30;99.90
39779;DHT22;25454;49.878;8.618;2023-03-01T04:19:42;0.40;99.90
39779;DHT22;25454;49.878;8.618;2023-03-01T04:24:44;0.40;99.90
39779;DHT22;25454;49.878;8.618;2023-03-01T04:29:45;0.40;99.90
39779;DHT22;25454;49.878;8.618;2023-03-01T04:34:45;0.50;99.90
39779;DHT22;25454;49.878;8.618;2023-03-01T04:39:46;0.50;99.90
39779;DHT22;25454;49.878;8.618;2023-03-01T04:44:47;0.50;99.90
39779;DHT22;25454;49.878;8.618;2023-03-01T04:49:48;0.50;99.90
39779;DHT22;25454;49.878;8.618;2023-03-01T04:54:48;0.50;99.90
39779;DHT22;25454;49.878;8.618;2023-03-01T04:59:52;0.50;99.90
39779;DHT22;25454;49.878;8.618;2023-03-01T05:04:52;0.40;99.90
39779;DHT22;25454;49.878;8.618;2023-03-01T05:09:57;0.40;99.90
39779;DHT22;25454;49.878;8.618;2023-03-01T05:14:58;0.40;99.90
39779;DHT22;25454;49.878;8.618;2023-03-01T05:19:58;0.40;99.90
39779;DHT22;25454;49.878;8.618;2023-03-01T05:24:59;0.50;99.90
39779;DHT22;25454;49.878;8.618;2023-03-01T05:30:00;0.50;99.90
39779;DHT22;25454;49.878;8.618;2023-03-01T05:35:16;0.50;99.90
39779;DHT22;25454;49.878;8.618;2023-03-01T05:40:22;0.50;99.90
39779;DHT22;25454;49.878;8.618;2023-03-01T05:45:27;0.50;99.90
39779;DHT22;25454;49.878;8.618;2023-03-01T05:50:29;0.50;99.90
39779;DHT22;25454;49.878;8.618;2023-03-01T05:55:30;0.50;99.90
39779;DHT22;25454;49.878;8.618;2023-03-01T06:00:32;0.50;99.90
39779;DHT22;25454;49.878;8.618;2023-03-01T06:05:33;0.50;99.90
39779;DHT22;25454;49.878;8.618;2023-03-01T06:10:33;0.60;99.90
39779;DHT22;25454;49.878;8.618;2023-03-01T06:15:37;0.60;99.90
39779;DHT22;25454;49.878;8.618;2023-03-01T06:20:38;0.60;99.90
39779;DHT22;25454;49.878;8.618;2023-03-01T06:25:38;0.70;99.90
39779;DHT22;25454;49.878;8.618;2023-03-01T06:30:39;0.70;99.90
39779;DHT22;25454;49.878;8.618;2023-03-01T06:35:39;0.80;99.90
39779;DHT22;25454;49.878;8.618;2023-03-01T06:40:42;1.00;99.90
39779;DHT22;25454;49.878;8.618;2023-03-01T06:45:43;1.10;99.90
39779;DHT22;25454;49.878;8.618;2023-03-01T06:50:43;1.20;99.90
39779;DHT22;25454;49.878;8.618;2023-03-01T06:55:44;1.30;99.90
39779;DHT22;25454;49.878;8.618;2023-03-01T07:00:44;1.40;99.90
39779;DHT22;25454;49.878;8.618;2023-03-01T07:05:45;1.50;99.90
39779;DHT22;25454;49.878;8.618;2023-03-01T07:10:46;1.60;99.90
39779;DHT22;25454;49.878;8.618;2023-03-01T07:15:48;1.80;99.90
39779;DHT22;25454;49.878;8.618;2023-03-01T07:20:49;2.10;99.90
39779;DHT22;25454;49.878;8.618;2023-03-01T07:25:54;2.30;99.90
39779;DHT22;25454;49.878;8.618;2023-03-01T07:31:01;3.30;99.90
39779;DHT22;25454;49.878;8.618;2023-03-01T07:36:03;4.50;99.90
39779;DHT22;25454;49.878;8.618;2023-03-01T07:41:04;5.50;99.90
39779;DHT22;25454;49.878;8.618;2023-03-01T07:46:06;6.30;99.90
39779;DHT22;25454;49.878;8.618;2023-03-01T07:51:07;6.80;99.90
39779;DHT22;25454;49.878;8.618;2023-03-01T07:56:11;7.00;97.30
39779;DHT22;25454;49.878;8.618;2023-03-01T08:01:14;8.00;95.20
39779;DHT22;25454;49.878;8.618;2023-03-01T08:06:17;8.90;91.60
39779;DHT22;25454;49.878;8.618;2023-03-01T08:11:17;9.70;86.20
39779;DHT22;25454;49.878;8.618;2023-03-01T08:16:18;9.90;82.90
39779;DHT22;25454;49.878;8.618;2023-03-01T08:21:19;10.30;76.70
39779;DHT22;25454;49.878;8.618;2023-03-01T08:26:21;10.90;73.50
39779;DHT22;25454;49.878;8.618;2023-03-01T08:31:24;11.20;70.00
39779;DHT22;25454;49.878;8.618;2023-03-01T08:36:31;11.40;67.70
39779;DHT22;25454;49.878;8.618;2023-03-01T08:41:32;11.20;66.60
39779;DHT22;25454;49.878;8.618;2023-03-01T08:46:36;12.30;64.30
39779;DHT22;25454;49.878;8.618;2023-03-01T08:51:38;12.80;62.80
39779;DHT22;25454;49.878;8.618;2023-03-01T08:56:39;12.90;59.60
39779;DHT22;25454;49.878;8.618;2023-03-01T09:01:40;13.10;58.20
39779;DHT22;25454;49.878;8.618;2023-03-01T09:06:43;13.20;56.60
39779;DHT22;25454;49.878;8.618;2023-03-01T09:11:45;12.90;57.10
39779;DHT22;25454;49.878;8.618;2023-03-01T09:16:46;13.20;56.50
39779;DHT22;25454;49.878;8.618;2023-03-01T09:21:47;13.60;55.00
39779;DHT22;25454;49.878;8.618;2023-03-01T09:26:56;13.70;54.90
39779;DHT22;25454;49.878;8.618;2023-03-01T09:31:57;14.20;53.20
39779;DHT22;25454;49.878;8.618;2023-03-01T09:36:58;14.50;52.40
39779;DHT22;25454;49.878;8.618;2023-03-01T09:42:02;14.20;52.00
39779;DHT22;25454;49.878;8.618;2023-03-01T09:47:05;14.70;50.90
39779;DHT22;25454;49.878;8.618;2023-03-01T09:52:29;15.10;50.10
39779;DHT22;25454;49.878;8.618;2023-03-01T10:03:58;15.20;48.70
39779;DHT22;25454;49.878;8.618;2023-03-01T10:08:49;15.30;49.00
39779;DHT22;25454;49.878;8.618;2023-03-01T10:19:03;16.80;46.00
39779;DHT22;25454;49.878;8.618;2023-03-01T10:24:13;16.80;45.30
39779;DHT22;25454;49.878;8.618;2023-03-01T10:29:14;16.70;45.10
39779;DHT22;25454;49.878;8.618;2023-03-01T10:34:28;16.30;44.80
39779;DHT22;25454;49.878;8.618;2023-03-01T10:39:35;16.80;44.70
39779;DHT22;25454;49.878;8.618;2023-03-01T10:44:45;16.70;43.40
39779;DHT22;25454;49.878;8.618;2023-03-01T10:50:18;16.00;43.40
39779;DHT22;25454;49.878;8.618;2023-03-01T11:00:32;16.90;43.00
39779;DHT22;25454;49.878;8.618;2023-03-01T11:05:33;17.50;41.50
39779;DHT22;25454;49.878;8.618;2023-03-01T11:10:36;18.10;40.80
39779;DHT22;25454;49.878;8.618;2023-03-01T11:15:36;18.00;41.30
39779;DHT22;25454;49.878;8.618;2023-03-01T11:20:37;18.50;41.20
39779;DHT22;25454;49.878;8.618;2023-03-01T11:25:46;18.50;40.10
39779;DHT22;25454;49.878;8.618;2023-03-01T11:30:59;18.80;39.40
39779;DHT22;25454;49.878;8.618;2023-03-01T11:41:43;15.30;44.00
39779;DHT22;25454;49.878;8.618;2023-03-01T12:03:23;10.00;56.20
39779;DHT22;25454;49.878;8.618;2023-03-01T12:08:56;9.80;56.70
39779;DHT22;25454;49.878;8.618;2023-03-01T12:19:59;9.70;57.50
39779;DHT22;25454;49.878;8.618;2023-03-01T12:51:35;9.10;58.30
39779;DHT22;25454;49.878;8.618;2023-03-01T12:56:37;9.30;58.30
39779;DHT22;25454;49.878;8.618;2023-03-01T13:01:56;9.20;57.50
39779;DHT22;25454;49.878;8.618;2023-03-01T13:17:56;9.30;58.60
39779;DHT22;25454;49.878;8.618;2023-03-01T13:33:41;9.30;58.60
39779;DHT22;25454;49.878;8.618;2023-03-01T13:39:28;9.30;58.50
39779;DHT22;25454;49.878;8.618;2023-03-01T13:44:39;9.30;58.50
39779;DHT22;25454;49.878;8.618;2023-03-01T13:49:56;9.10;58.00
39779;DHT22;25454;49.878;8.618;2023-03-01T13:55:00;9.10;58.80
39779;DHT22;25454;49.878;8.618;2023-03-01T14:00:06;9.30;58.30
39779;DHT22;25454;49.878;8.618;2023-03-01T14:05:09;9.20;58.20
39779;DHT22;25454;49.878;8.618;2023-03-01T14:10:43;9.20;58.20
39779;DHT22;25454;49.878;8.618;2023-03-01T14:16:24;9.20;57.90
39779;DHT22;25454;49.878;8.618;2023-03-01T14:21:26;9.10;58.20
39779;DHT22;25454;49.878;8.618;2023-03-01T14:26:27;9.20;58.40
39779;DHT22;25454;49.878;8.618;2023-03-01T14:31:39;9.10;58.50
39779;DHT22;25454;49.878;8.618;2023-03-01T14:36:42;9.20;58.50
39779;DHT22;25454;49.878;8.618;2023-03-01T14:41:43;9.10;58.40
39779;DHT22;25454;49.878;8.618;2023-03-01T14:46:45;9.00;58.80
39779;DHT22;25454;49.878;8.618;2023-03-01T14:57:00;9.00;59.00
39779;DHT22;25454;49.878;8.618;2023-03-01T15:02:01;9.00;59.70
39779;DHT22;25454;49.878;8.618;2023-03-01T15:07:02;8.90;60.00
39779;DHT22;25454;49.878;8.618;2023-03-01T15:12:25;8.90;60.60
39779;DHT22;25454;49.878;8.618;2023-03-01T15:22:32;8.80;60.90
39779;DHT22;25454;49.878;8.618;2023-03-01T15:27:32;8.80;61.80
39779;DHT22;25454;49.878;8.618;2023-03-01T15:32:35;8.70;62.40
39779;DHT22;25454;49.878;8.618;2023-03-01T15:37:47;8.70;61.90
39779;DHT22;25454;49.878;8.618;2023-03-01T15:42:48;8.60;62.20
39779;DHT22;25454;49.878;8.618;2023-03-01T15:47:56;8.50;62.80
39779;DHT22;25454;49.878;8.618;2023-03-01T15:53:00;8.50;62.70
39779;DHT22;25454;49.878;8.618;2023-03-01T15:58:17;8.50;63.00
39779;DHT22;25454;49.878;8.618;2023-03-01T16:03:18;8.40;63.20
39779;DHT22;25454;49.878;8.618;2023-03-01T16:08:21;8.40;63.60
39779;DHT22;25454;49.878;8.618;2023-03-01T16:13:22;8.30;64.30
39779;DHT22;25454;49.878;8.618;2023-03-01T16:18:22;8.20;65.20
39779;DHT22;25454;49.878;8.618;2023-03-01T16:23:23;8.10;65.50
39779;DHT22;25454;49.878;8.618;2023-03-01T16:28:25;8.10;66.00
39779;DHT22;25454;49.878;8.618;2023-03-01T16:33:26;8.00;66.40
39779;DHT22;25454;49.878;8.618;2023-03-01T16:38:27;7.90;66.80
39779;DHT22;25454;49.878;8.618;2023-03-01T16:43:29;7.70;67.40
39779;DHT22;25454;49.878;8.618;2023-03-01T16:48:29;7.60;67.40
39779;DHT22;25454;49.878;8.618;2023-03-01T16:53:30;7.50;68.30
39779;DHT22;25454;49.878;8.618;2023-03-01T16:58:31;7.40;69.10
39779;DHT22;25454;49.878;8.618;2023-03-01T17:03:31;7.20;69.90
39779;DHT22;25454;49.878;8.618;2023-03-01T17:08:32;7.10;70.90
39779;DHT22;25454;49.878;8.618;2023-03-01T17:13:34;7.00;71.90
39779;DHT22;25454;49.878;8.618;2023-03-01T17:18:35;6.90;72.80
39779;DHT22;25454;49.878;8.618;2023-03-01T17:23:38;6.80;73.40
39779;DHT22;25454;49.878;8.618;2023-03-01T17:28:39;6.60;73.90
39779;DHT22;25454;49.878;8.618;2023-03-01T17:33:40;6.50;74.50
39779;DHT22;25454;49.878;8.618;2023-03-01T17:38:41;6.40;75.20
39779;DHT22;25454;49.878;8.618;2023-03-01T17:43:41;6.40;75.90
39779;DHT22;25454;49.878;8.618;2023-03-01T17:48:42;6.20;76.30
39779;DHT22;25454;49.878;8.618;2023-03-01T17:53:43;6.10;76.80
39779;DHT22;25454;49.878;8.618;2023-03-01T17:58:43;6.10;77.40
39779;DHT22;25454;49.878;8.618;2023-03-01T18:03:46;6.00;78.00
39779;DHT22;25454;49.878;8.618;2023-03-01T18:08:47;5.90;78.20
39779;DHT22;25454;49.878;8.618;2023-03-01T18:13:50;5.80;78.50
39779;DHT22;25454;49.878;8.618;2023-03-01T18:18:55;5.80;78.80
39779;DHT22;25454;49.878;8.618;2023-03-01T18:23:56;5.70;80.10
39779;DHT22;25454;49.878;8.618;2023-03-01T18:28:57;5.60;79.70
39779;DHT22;25454;49.878;8.618;2023-03-01T18:34:00;5.50;80.00
39779;DHT22;25454;49.878;8.618;2023-03-01T18:39:03;5.50;80.40
39779;DHT22;25454;49.878;8.618;2023-03-01T18:44:07;5.40;80.80
39779;DHT22;25454;49.878;8.618;2023-03-01T18:49:09;5.30;81.10
39779;DHT22;25454;49.878;8.618;2023-03-01T18:54:12;5.30;81.40
39779;DHT22;25454;49.878;8.618;2023-03-01T18:59:13;5.20;81.80
39779;DHT22;25454;49.878;8.618;2023-03-01T19:04:13;5.10;82.00
39779;DHT22;25454;49.878;8.618;2023-03-01T19:09:14;5.10;82.20
39779;DHT22;25454;49.878;8.618;2023-03-01T19:14:15;5.00;82.00
39779;DHT22;25454;49.878;8.618;2023-03-01T19:19:15;5.00;81.90
39779;DHT22;25454;49.878;8.618;2023-03-01T19:24:16;4.90;82.80
39779;DHT22;25454;49.878;8.618;2023-03-01T19:29:17;4.80;81.90
39779;DHT22;25454;49.878;8.618;2023-03-01T19:34:17;4.80;81.90
39779;DHT22;25454;49.878;8.618;2023-03-01T19:39:18;4.70;82.10
39779;DHT22;25454;49.878;8.618;2023-03-01T19:44:19;4.70;82.40
39779;DHT22;25454;49.878;8.618;2023-03-01T19:49:24;4.60;82.80
39779;DHT22;25454;49.878;8.618;2023-03-01T19:54:26;4.60;83.10
39779;DHT22;25454;49.878;8.618;2023-03-01T19:59:31;4.50;84.10
39779;DHT22;25454;49.878;8.618;2023-03-01T20:04:31;4.40;83.80
39779;DHT22;25454;49.878;8.618;2023-03-01T20:09:32;4.30;84.20
39779;DHT22;25454;49.878;8.618;2023-03-01T20:14:33;4.30;84.70
39779;DHT22;25454;49.878;8.618;2023-03-01T20:19:33;4.30;85.20
39779;DHT22;25454;49.878;8.618;2023-03-01T20:24:34;4.10;85.60
39779;DHT22;25454;49.878;8.618;2023-03-01T20:29:35;4.10;86.30
39779;DHT22;25454;49.878;8.618;2023-03-01T20:34:36;4.00;86.70
39779;DHT22;25454;49.878;8.618;2023-03-01T20:39:37;4.00;87.10
39779;DHT22;25454;49.878;8.618;2023-03-01T20:44:37;3.90;87.60
39779;DHT22;25454;49.878;8.618;2023-03-01T20:49:43;3.90;88.00
39779;DHT22;25454;49.878;8.618;2023-03-01T20:54:45;3.80;88.60
39779;DHT22;25454;49.878;8.618;2023-03-01T20:59:46;3.70;89.10
39779;DHT22;25454;49.878;8.618;2023-03-01T21:04:46;3.70;89.60
39779;DHT22;25454;49.878;8.618;2023-03-01T21:09:47;3.60;90.10
39779;DHT22;25454;49.878;8.618;2023-03-01T21:14:47;3.60;90.50
39779;DHT22;25454;49.878;8.618;2023-03-01T21:19:48;3.50;90.80
39779;DHT22;25454;49.878;8.618;2023-03-01T21:24:50;3.50;91.10
39779;DHT22;25454;49.878;8.618;2023-03-01T21:29:51;3.50;91.20
39779;DHT22;25454;49.878;8.618;2023-03-01T21:34:54;3.50;91.50
39779;DHT22;25454;49.878;8.618;2023-03-01T21:39:57;3.50;91.70
39779;DHT22;25454;49.878;8.618;2023-03-01T21:44:58;3.50;92.10
39779;DHT22;25454;49.878;8.618;2023-03-01T21:49:58;3.40;92.30
39779;DHT22;25454;49.878;8.618;2023-03-01T21:54:59;3.40;92.60
39779;DHT22;25454;49.878;8.618;2023-03-01T22:00:02;3.40;92.90
39779;DHT22;25454;49.878;8.618;2023-03-01T22:05:07;3.40;93.20
39779;DHT22;25454;49.878;8.618;2023-03-01T22:10:08;3.30;93.60
39779;DHT22;25454;49.878;8.618;2023-03-01T22:15:09;3.30;93.80
39779;DHT22;25454;49.878;8.618;2023-03-01T22:20:10;3.20;94.00
39779;DHT22;25454;49.878;8.618;2023-03-01T22:25:11;3.20;94.30
39779;DHT22;25454;49.878;8.618;2023-03-01T22:30:13;3.10;94.70
39779;DHT22;25454;49.878;8.618;2023-03-01T22:35:14;3.00;95.10
39779;DHT22;25454;49.878;8.618;2023-03-01T22:40:15;3.00;95.50
39779;DHT22;25454;49.878;8.618;2023-03-01T22:45:16;2.90;95.80
39779;DHT22;25454;49.878;8.618;2023-03-01T22:50:16;2.90;96.10
39779;DHT22;25454;49.878;8.618;2023-03-01T22:55:17;2.90;96.40
39779;DHT22;25454;49.878;8.618;2023-03-01T23:00:20;2.90;96.60
39779;DHT22;25454;49.878;8.618;2023-03-01T23:05:21;2.90;96.90
39779;DHT22;25454;49.878;8.618;2023-03-01T23:10:21;2.80;97.20
39779;DHT22;25454;49.878;8.618;2023-03-01T23:15:22;2.80;97.50
39779;DHT22;25454;49.878;8.618;2023-03-01T23:20:23;2.80;98.00
39779;DHT22;25454;49.878;8.618;2023-03-01T23:25:23;2.70;98.40
39779;DHT22;25454;49.878;8.618;2023-03-01T23:30:24;2.70;98.60
39779;DHT22;25454;49.878;8.618;2023-03-01T23:35:26;2.70;98.80
39779;DHT22;25454;49.878;8.618;2023-03-01T23:40:26;2.60;99.00
39779;DHT22;25454;49.878;8.618;2023-03-01T23:45:27;2.60;99.40
39779;DHT22;25454;49.878;8.618;2023-03-01T23:50:27;2.60;99.60
39779;DHT22;25454;49.878;8.618;2023-03-01T23:55:29;2.50;99.80
